Time;durP1;ratioP1;P1;durP2;ratioP2;P2;SDS_P1;SDS_P2;PMS_P1;PMS_P2;Temp;Humidity;BMP_temperature;BMP_pressure;BME280_temperature;BME280_humidity;BME280_pressure;Samples;Min_cycle;Max_cycle;Signal;HPM_P1;HPM_P2
2020/12/12 00:00:56;;;;;;;39.30;24.00;;;;;;;1.71;90.69;98120.47;5081876;28;20491;-70
2020/12/12 00:03:22;;;;;;;41.13;23.30;;;;;;;1.67;90.79;98120.75;5079190;28;20456;-68
2020/12/12 00:05:48;;;;;;;41.77;24.80;;;;;;;1.73;90.53;98121.16;5080821;28;20541;-69
2020/12/12 00:08:14;;;;;;;41.90;23.93;;;;;;;1.79;90.39;98116.19;5082608;28;20528;-69
2020/12/12 00:10:40;;;;;;;42.77;23.50;;;;;;;1.69;90.33;98117.97;5082781;28;20525;-69
2020/12/12 00:13:08;;;;;;;42.07;23.90;;;;;;;1.79;90.47;98120.59;5082387;28;20444;-68
2020/12/12 00:15:35;;;;;;;46.47;23.70;;;;;;;1.65;90.69;98116.56;5081269;28;20467;-69
2020/12/12 00:18:01;;;;;;;39.63;24.30;;;;;;;1.68;90.64;98119.78;5082941;28;21262;-69
2020/12/12 00:20:27;;;;;;;44.23;24.47;;;;;;;1.69;90.68;98121.44;5079267;28;20464;-68
2020/12/12 00:22:54;;;;;;;41.53;23.77;;;;;;;1.72;90.66;98122.97;5083217;28;20475;-69
2020/12/12 00:25:20;;;;;;;42.70;22.97;;;;;;;1.76;90.44;98116.47;5080622;28;20491;-69
2020/12/12 00:27:46;;;;;;;44.27;25.20;;;;;;;1.71;90.42;98121.31;5082657;28;20479;-68
2020/12/12 00:30:13;;;;;;;39.10;23.87;;;;;;;1.76;90.70;98118.28;5081091;28;20429;-68
2020/12/12 00:32:40;;;;;;;37.57;22.00;;;;;;;1.74;90.67;98115.78;5083642;28;20440;-69
2020/12/12 00:35:06;;;;;;;43.07;24.33;;;;;;;1.72;90.89;98116.84;5081695;28;20440;-69
2020/12/12 00:37:32;;;;;;;41.60;23.97;;;;;;;1.71;90.76;98120.47;5082992;28;20480;-69
2020/12/12 00:39:58;;;;;;;41.60;24.50;;;;;;;1.76;90.78;98123.53;5083611;28;20502;-69
2020/12/12 00:42:25;;;;;;;40.53;24.40;;;;;;;1.74;90.64;98120.22;5082586;28;20483;-69
2020/12/12 00:44:51;;;;;;;40.57;24.70;;;;;;;1.77;90.69;98115.50;5082408;28;20476;-69
2020/12/12 00:47:17;;;;;;;43.83;24.97;;;;;;;1.75;90.69;98122.69;5082327;28;20485;-68
2020/12/12 00:49:44;;;;;;;37.70;23.30;;;;;;;1.75;90.91;98122.69;5083821;28;20483;-68
2020/12/12 00:52:10;;;;;;;40.80;23.30;;;;;;;1.80;90.78;98117.84;5081615;28;20608;-69
2020/12/12 00:54:36;;;;;;;36.73;22.63;;;;;;;1.75;91.26;98119.22;5083218;28;20546;-69
2020/12/12 00:57:02;;;;;;;36.53;22.00;;;;;;;1.74;91.71;98121.03;5082319;28;20495;-69
2020/12/12 00:59:28;;;;;;;42.07;22.90;;;;;;;1.78;91.62;98114.50;5083072;28;20478;-69
2020/12/12 01:01:55;;;;;;;40.03;23.77;;;;;;;1.77;91.49;98125.19;5082058;28;20483;-69
2020/12/12 01:04:21;;;;;;;38.70;23.70;;;;;;;1.77;91.75;98115.50;5084232;28;20424;-68
2020/12/12 01:06:48;;;;;;;35.93;22.83;;;;;;;1.75;92.23;98116.59;5076946;28;20512;-69
2020/12/12 01:09:15;;;;;;;38.77;22.87;;;;;;;1.84;91.93;98121.03;5083439;28;20484;-69
2020/12/12 01:11:41;;;;;;;38.57;25.00;;;;;;;1.75;92.53;98121.88;5082084;28;20992;-68
2020/12/12 01:14:07;;;;;;;46.03;23.40;;;;;;;1.77;92.41;98123.41;5082987;28;20451;-69
2020/12/12 01:16:33;;;;;;;38.20;23.40;;;;;;;1.80;92.62;98127.56;5082117;28;20479;-69
2020/12/12 01:18:59;;;;;;;39.47;23.40;;;;;;;1.80;92.52;98122.28;5083844;28;20931;-69
2020/12/12 01:21:26;;;;;;;45.93;25.17;;;;;;;1.76;93.13;98118.28;5080705;28;20547;-69
2020/12/12 01:23:53;;;;;;;39.70;23.33;;;;;;;1.77;93.29;98123.41;5083521;28;20956;-69
2020/12/12 01:26:19;;;;;;;43.93;23.53;;;;;;;1.74;93.28;98123.66;5082066;28;20552;-69
2020/12/12 01:28:46;;;;;;;39.63;23.37;;;;;;;1.84;93.06;98124.50;5084511;28;20525;-69
2020/12/12 01:31:12;;;;;;;41.00;24.07;;;;;;;1.83;93.05;98130.75;5082424;28;20480;-69
2020/12/12 01:33:39;;;;;;;41.03;23.80;;;;;;;1.81;93.24;98121.31;5084596;28;20972;-69
2020/12/12 01:36:05;;;;;;;41.90;24.50;;;;;;;1.84;92.87;98119.25;5082456;28;20508;-69
2020/12/12 01:38:32;;;;;;;44.00;24.67;;;;;;;1.91;92.70;98127.44;5083998;28;20487;-68
2020/12/12 01:40:59;;;;;;;37.10;23.33;;;;;;;1.96;92.71;98133.13;5082233;28;20507;-68
2020/12/12 01:43:25;;;;;;;45.13;26.37;;;;;;;1.92;92.62;98128.25;5083863;28;20949;-69
2020/12/12 01:45:51;;;;;;;42.30;23.70;;;;;;;1.81;92.74;98121.31;5082529;28;20475;-69
2020/12/12 01:48:17;;;;;;;40.37;23.73;;;;;;;1.93;92.58;98127.28;5083769;28;20515;-69
2020/12/12 01:50:44;;;;;;;44.07;24.73;;;;;;;1.82;92.86;98128.25;5082276;28;20472;-69
2020/12/12 01:53:11;;;;;;;42.07;24.20;;;;;;;1.78;93.17;98132.13;5083727;28;20479;-67
2020/12/12 01:55:37;;;;;;;42.27;24.97;;;;;;;1.74;93.08;98126.31;5083372;28;20637;-69
2020/12/12 01:58:04;;;;;;;47.70;25.30;;;;;;;1.83;92.92;98125.47;5088210;28;20440;-69
2020/12/12 02:00:30;;;;;;;49.60;25.20;;;;;;;1.79;93.08;98125.88;5085460;28;20468;-69
2020/12/12 02:02:57;;;;;;;44.20;23.60;;;;;;;1.80;93.09;98131.00;5087369;28;20891;-69
2020/12/12 02:05:40;;;;;;;46.10;24.53;;;;;;;1.78;93.00;98130.31;5085668;28;20456;-69
2020/12/12 02:08:09;;;;;;;42.03;26.33;;;;;;;1.79;93.06;98129.38;5087215;28;20560;-69
2020/12/12 02:10:36;;;;;;;40.03;24.10;;;;;;;1.92;92.68;98131.72;5085331;28;20491;-68
2020/12/12 02:13:04;;;;;;;42.73;23.20;;;;;;;1.93;92.46;98128.13;5087267;28;20444;-68
2020/12/12 02:15:30;;;;;;;42.37;24.47;;;;;;;1.86;92.49;98121.75;5086101;28;20463;-68
2020/12/12 02:17:56;;;;;;;41.37;22.90;;;;;;;1.93;92.58;98119.38;5087097;28;20551;-68
2020/12/12 02:20:23;;;;;;;42.73;23.53;;;;;;;1.94;92.40;98124.50;5085689;28;20480;-68
2020/12/12 02:22:50;;;;;;;42.33;23.43;;;;;;;1.90;92.62;98119.66;5086754;28;20499;-68
2020/12/12 02:25:16;;;;;;;37.63;22.63;;;;;;;1.91;92.60;98121.31;5085290;28;20456;-68
2020/12/12 02:27:42;;;;;;;39.80;23.87;;;;;;;1.91;92.62;98118.69;5086540;28;20487;-68
2020/12/12 02:30:09;;;;;;;39.77;24.60;;;;;;;1.92;92.42;98115.91;5084496;28;20448;-68
2020/12/12 02:32:35;;;;;;;38.60;23.90;;;;;;;1.96;92.34;98119.94;5087523;28;20447;-69
2020/12/12 02:35:03;;;;;;;44.97;23.80;;;;;;;1.97;92.35;98121.59;5086943;28;20490;-67
2020/12/12 02:37:29;;;;;;;37.57;24.47;;;;;;;1.98;92.71;98125.06;5085516;28;20471;-68
2020/12/12 02:39:56;;;;;;;41.00;23.77;;;;;;;1.97;92.68;98128.69;5086867;28;20451;-68
2020/12/12 02:42:22;;;;;;;37.30;22.40;;;;;;;1.91;92.73;98122.16;5085205;28;20563;-68
2020/12/12 02:44:52;;;;;;;42.80;24.23;;;;;;;2.04;92.37;98129.78;5086704;28;20436;-69
2020/12/12 02:47:19;;;;;;;38.70;23.30;;;;;;;2.04;92.11;98116.59;5084653;28;20518;-68
2020/12/12 02:49:45;;;;;;;47.57;24.70;;;;;;;2.06;92.18;98122.56;5086601;28;20447;-68
2020/12/12 02:52:11;;;;;;;43.60;25.87;;;;;;;2.03;92.48;98130.75;5084644;28;20535;-69
2020/12/12 02:54:37;;;;;;;41.97;25.20;;;;;;;1.96;92.71;98127.00;5086089;28;20471;-68
2020/12/12 02:57:04;;;;;;;40.43;23.90;;;;;;;2.03;92.56;98117.56;5084604;28;20475;-68
2020/12/12 02:59:31;;;;;;;43.73;25.83;;;;;;;2.06;92.46;98114.66;5086802;28;20452;-68
2020/12/12 03:01:57;;;;;;;43.23;25.00;;;;;;;2.00;92.50;98129.22;5084464;28;20471;-69
2020/12/12 03:04:23;;;;;;;41.87;24.83;;;;;;;2.04;92.82;98122.69;5086922;28;20432;-68
2020/12/12 03:06:49;;;;;;;46.63;24.77;;;;;;;2.06;92.43;98118.13;5074914;28;20520;-69
2020/12/12 03:09:15;;;;;;;43.20;24.50;;;;;;;2.02;92.55;98127.28;5085656;28;20483;-69
2020/12/12 03:11:41;;;;;;;48.70;27.77;;;;;;;2.06;92.51;98122.56;5084978;28;20496;-68
2020/12/12 03:14:08;;;;;;;41.67;24.33;;;;;;;2.04;92.38;98132.41;5085962;28;20859;-68
2020/12/12 03:16:34;;;;;;;46.77;25.93;;;;;;;2.07;92.19;98130.34;5084119;28;20507;-68
2020/12/12 03:19:00;;;;;;;44.63;25.93;;;;;;;2.07;92.26;98135.59;5086189;28;20479;-68
2020/12/12 03:21:26;;;;;;;48.27;25.60;;;;;;;2.06;92.45;98139.19;5084241;28;20519;-68
2020/12/12 03:23:53;;;;;;;46.17;26.00;;;;;;;2.12;92.17;98143.13;5085455;28;20476;-68
2020/12/12 03:26:19;;;;;;;45.87;24.37;;;;;;;2.12;92.14;98139.63;5084028;28;21104;-68
2020/12/12 03:28:45;;;;;;;49.17;30.37;;;;;;;2.09;92.41;98143.38;5085921;28;20515;-68
2020/12/12 03:31:12;;;;;;;50.60;25.93;;;;;;;2.13;92.10;98143.94;5084256;28;21667;-68
2020/12/12 03:33:38;;;;;;;47.53;27.33;;;;;;;2.05;92.53;98156.00;5086007;28;20456;-69
2020/12/12 03:36:04;;;;;;;44.20;25.10;;;;;;;2.14;92.22;98156.16;5083199;28;20543;-68
2020/12/12 03:38:30;;;;;;;49.27;27.03;;;;;;;2.15;92.49;98155.16;5085613;28;20467;-68
2020/12/12 03:40:56;;;;;;;48.87;26.63;;;;;;;2.15;92.45;98156.00;5084164;28;20476;-68
2020/12/12 03:43:24;;;;;;;45.33;26.93;;;;;;;2.15;92.50;98165.72;5085172;28;20494;-68
2020/12/12 03:45:51;;;;;;;48.00;24.97;;;;;;;2.22;92.27;98151.00;5084241;28;20475;-68
2020/12/12 03:48:18;;;;;;;49.83;25.50;;;;;;;2.26;92.05;98158.50;5084880;28;20510;-68
2020/12/12 03:50:44;;;;;;;49.10;27.00;;;;;;;2.20;92.18;98163.50;5083270;28;20559;-68
2020/12/12 03:53:10;;;;;;;48.33;27.30;;;;;;;2.22;92.07;98159.75;5085510;28;20467;-68
2020/12/12 03:55:37;;;;;;;44.30;25.30;;;;;;;2.23;92.11;98163.22;5083199;28;20563;-68
2020/12/12 03:58:03;;;;;;;51.90;26.77;;;;;;;2.25;92.25;98156.00;5085829;28;20444;-68
2020/12/12 04:00:29;;;;;;;45.63;27.10;;;;;;;2.22;92.39;98161.53;5083684;28;20535;-68
2020/12/12 04:02:55;;;;;;;44.90;26.73;;;;;;;2.26;92.24;98162.94;5085006;28;20483;-68
2020/12/12 04:05:22;;;;;;;43.70;26.20;;;;;;;2.36;91.71;98173.47;5083618;28;20460;-68
2020/12/12 04:07:48;;;;;;;39.30;24.30;;;;;;;2.29;91.88;98162.66;5085035;28;20483;-68
2020/12/12 04:10:15;;;;;;;42.53;27.13;;;;;;;2.32;91.96;98165.00;5082700;28;20455;-68
2020/12/12 04:12:41;;;;;;;47.00;26.20;;;;;;;2.41;91.49;98171.25;5085326;28;20444;-68
2020/12/12 04:15:07;;;;;;;39.73;24.83;;;;;;;2.42;91.24;98167.66;5083732;28;20474;-67
2020/12/12 04:17:33;;;;;;;45.47;25.30;;;;;;;2.48;91.17;98172.34;5084948;28;20425;-68
2020/12/12 04:19:59;;;;;;;43.53;25.67;;;;;;;2.38;91.56;98171.56;5084089;28;20486;-68
2020/12/12 04:22:26;;;;;;;45.07;25.30;;;;;;;2.43;91.64;98175.44;5083087;28;20527;-67
2020/12/12 04:24:52;;;;;;;41.53;24.50;;;;;;;2.51;91.40;98177.34;5084320;28;20480;-67
2020/12/12 04:27:18;;;;;;;46.80;25.80;;;;;;;2.48;91.49;98177.63;5083089;28;20507;-68
2020/12/12 04:29:45;;;;;;;45.33;26.23;;;;;;;2.56;91.41;98182.22;5084706;28;20521;-68
2020/12/12 04:32:11;;;;;;;40.17;24.50;;;;;;;2.50;91.35;98172.22;5083138;28;20484;-67
2020/12/12 04:34:37;;;;;;;43.67;26.40;;;;;;;2.55;91.05;98176.13;5084957;28;20428;-67
2020/12/12 04:37:03;;;;;;;41.73;24.33;;;;;;;2.54;91.11;98177.06;5083226;28;21022;-68
2020/12/12 04:39:30;;;;;;;40.20;24.07;;;;;;;2.55;91.19;98178.75;5084278;28;20483;-68
2020/12/12 04:41:57;;;;;;;41.87;26.20;;;;;;;2.52;91.56;98175.53;5083333;28;20542;-69
2020/12/12 04:44:23;;;;;;;50.93;24.00;;;;;;;2.59;91.55;98177.50;5084955;28;20452;-68
2020/12/12 04:46:51;;;;;;;38.57;22.80;;;;;;;2.62;90.89;98179.00;5082955;28;20503;-68
2020/12/12 04:49:17;;;;;;;42.23;25.33;;;;;;;2.69;90.83;98179.28;5084964;28;20471;-68
2020/12/12 04:51:44;;;;;;;37.80;24.53;;;;;;;2.71;90.45;98170.25;5082968;28;20929;-68
2020/12/12 04:54:12;;;;;;;33.27;21.90;;;;;;;2.63;91.00;98173.59;5084094;28;20460;-68
2020/12/12 04:56:40;;;;;;;38.90;24.20;;;;;;;2.67;91.13;98171.50;5083356;28;20514;-68
2020/12/12 04:59:07;;;;;;;39.90;23.47;;;;;;;2.77;90.58;98179.41;5085019;28;20472;-69
2020/12/12 05:01:33;;;;;;;41.03;23.80;;;;;;;2.60;91.05;98179.16;5082701;28;20475;-68
2020/12/12 05:04:02;;;;;;;44.10;24.40;;;;;;;2.64;90.91;98175.25;5084909;28;20451;-68
2020/12/12 05:06:29;;;;;;;37.67;21.47;;;;;;;2.60;91.13;98179.16;5082359;28;20470;-68
2020/12/12 05:08:55;;;;;;;35.43;21.97;;;;;;;2.64;91.25;98183.19;5084036;28;20515;-68
2020/12/12 05:11:24;;;;;;;35.07;21.50;;;;;;;2.63;91.25;98180.69;5082727;28;20468;-69
2020/12/12 05:13:51;;;;;;;33.03;20.17;;;;;;;2.64;91.49;98182.34;5084573;28;20451;-68
2020/12/12 05:16:18;;;;;;;42.50;23.33;;;;;;;2.56;91.59;98185.69;5083149;28;20503;-68
2020/12/12 05:18:44;;;;;;;35.37;21.87;;;;;;;2.55;91.84;98184.03;5084355;28;20464;-68
2020/12/12 05:21:10;;;;;;;32.10;21.47;;;;;;;2.67;91.68;98183.84;5082626;28;20460;-68
2020/12/12 05:23:37;;;;;;;36.10;22.83;;;;;;;2.66;90.98;98182.19;5083557;28;20483;-67
2020/12/12 05:26:03;;;;;;;35.23;22.33;;;;;;;2.68;91.15;98186.34;5082801;28;20527;-69
2020/12/12 05:28:29;;;;;;;36.50;22.27;;;;;;;2.69;91.08;98185.41;5083971;28;20511;-69
2020/12/12 05:30:56;;;;;;;32.33;20.80;;;;;;;2.80;91.03;98187.88;5084364;28;20507;-68
2020/12/12 05:33:24;;;;;;;36.57;22.10;;;;;;;2.70;91.26;98186.22;5088160;28;20459;-68
2020/12/12 05:35:50;;;;;;;33.87;21.80;;;;;;;2.63;91.98;98196.50;5086727;28;20483;-68
2020/12/12 05:38:17;;;;;;;34.87;23.10;;;;;;;2.75;91.66;98189.28;5086386;28;20448;-68
2020/12/12 05:40:44;;;;;;;38.23;22.97;;;;;;;2.78;91.05;98191.63;5085854;28;20479;-67
2020/12/12 05:43:11;;;;;;;39.97;22.63;;;;;;;2.79;91.39;98196.75;5088034;28;20466;-67
2020/12/12 05:45:38;;;;;;;34.13;22.13;;;;;;;2.75;91.18;98192.72;5085793;28;21000;-67
2020/12/12 05:48:05;;;;;;;34.63;21.90;;;;;;;2.76;91.28;98188.28;5089314;28;20563;-67
2020/12/12 05:50:31;;;;;;;36.60;22.13;;;;;;;2.71;91.33;98186.09;5086522;28;20496;-67
2020/12/12 05:52:58;;;;;;;35.90;21.97;;;;;;;2.74;91.57;98192.88;5087396;28;20491;-67
2020/12/12 05:55:26;;;;;;;34.73;21.00;;;;;;;2.77;91.41;98195.22;5085655;28;21769;-68
2020/12/12 05:57:53;;;;;;;36.23;22.47;;;;;;;2.71;91.58;98201.91;5087520;28;20464;-68
2020/12/12 06:00:21;;;;;;;39.50;22.43;;;;;;;2.68;91.68;98196.91;5085496;28;20491;-68
2020/12/12 06:02:53;;;;;;;38.40;23.40;;;;;;;2.72;91.37;98208.03;5087159;28;20452;-68
2020/12/12 06:05:24;;;;;;;38.97;22.57;;;;;;;2.73;91.59;98207.88;5085938;28;20444;-69
2020/12/12 06:07:53;;;;;;;38.60;22.50;;;;;;;2.78;91.36;98207.47;5086937;28;20826;-68
2020/12/12 06:10:24;;;;;;;36.87;22.40;;;;;;;2.71;91.43;98199.28;5085463;28;20479;-68
2020/12/12 06:12:56;;;;;;;41.20;22.70;;;;;;;2.74;91.78;98216.63;5084192;28;20487;-69
2020/12/12 06:15:32;;;;;;;40.33;23.67;;;;;;;2.75;91.30;98216.47;5086467;28;20488;-69
2020/12/12 06:18:09;;;;;;;35.70;21.23;;;;;;;2.88;91.56;98218.81;5085081;28;20784;-69
2020/12/12 06:20:39;;;;;;;37.20;24.27;;;;;;;2.86;91.06;98225.22;5085523;28;20532;-69
2020/12/12 06:23:06;;;;;;;40.40;22.30;;;;;;;2.91;91.23;98226.44;5086967;28;20507;-69
2020/12/12 06:25:32;;;;;;;38.03;23.60;;;;;;;2.80;91.36;98226.63;5083611;28;20472;-68
2020/12/12 06:27:59;;;;;;;53.90;35.40;;;;;;;2.81;91.21;98223.00;5086892;28;20491;-68
2020/12/12 06:30:26;;;;;;;36.70;23.93;;;;;;;2.90;91.76;98227.44;5083922;28;20503;-68
2020/12/12 06:32:59;;;;;;;38.77;25.37;;;;;;;2.78;91.57;98218.84;5084549;28;20480;-68
2020/12/12 06:35:31;;;;;;;77.77;52.57;;;;;;;2.78;91.88;98225.94;5082820;28;20501;-69
2020/12/12 06:38:25;;;;;;;175.17;93.67;;;;;;;2.79;91.57;98227.59;5084154;28;20447;-69
2020/12/12 06:40:53;;;;;;;35.60;21.20;;;;;;;2.82;91.27;98230.78;5082539;28;20472;-68
2020/12/12 06:43:31;;;;;;;35.20;21.47;;;;;;;2.75;91.53;98244.69;5082978;28;20447;-68
2020/12/12 06:45:58;;;;;;;35.23;22.17;;;;;;;2.88;91.42;98241.75;5081631;28;20475;-68
2020/12/12 06:48:25;;;;;;;33.20;20.00;;;;;;;2.88;91.46;98242.56;5083661;28;20772;-68
2020/12/12 06:50:51;;;;;;;56.87;49.10;;;;;;;2.82;91.44;98243.97;5081934;28;20508;-69
2020/12/12 06:53:20;;;;;;;30.57;23.20;;;;;;;2.85;91.55;98252.56;5083345;28;20444;-68
2020/12/12 06:55:46;;;;;;;29.80;20.67;;;;;;;2.82;91.48;98245.78;5079511;28;20530;-68
2020/12/12 06:58:23;;;;;;;31.70;18.80;;;;;;;2.75;91.62;98252.59;5079641;28;20495;-69
2020/12/12 07:00:49;;;;;;;30.47;18.67;;;;;;;2.78;91.74;98258.44;5084105;28;20471;-69
2020/12/12 07:03:20;;;;;;;33.67;20.23;;;;;;;2.74;91.82;98258.84;5086248;28;20474;-68
2020/12/12 07:05:47;;;;;;;35.50;21.50;;;;;;;2.74;91.81;98264.97;5084589;28;20738;-69
2020/12/12 07:08:13;;;;;;;29.97;20.53;;;;;;;2.71;91.65;98262.59;5085369;28;20567;-69
2020/12/12 07:10:41;;;;;;;34.80;21.67;;;;;;;2.69;91.88;98279.53;5084188;28;20543;-68
2020/12/12 07:13:08;;;;;;;35.30;21.10;;;;;;;2.63;92.12;98280.94;5085662;28;20468;-68
2020/12/12 07:15:36;;;;;;;39.13;21.87;;;;;;;2.66;92.11;98274.53;5084970;28;20499;-69
2020/12/12 07:18:04;;;;;;;41.20;23.03;;;;;;;2.59;92.35;98276.91;5085186;28;20452;-68
2020/12/12 07:20:32;;;;;;;40.53;23.33;;;;;;;2.57;92.59;98284.09;5084745;28;20480;-69
2020/12/12 07:23:01;;;;;;;36.53;21.00;;;;;;;2.56;92.31;98280.63;5085381;28;20483;-68
2020/12/12 07:25:27;;;;;;;31.43;21.50;;;;;;;2.55;92.45;98281.63;5084100;28;20558;-68
2020/12/12 07:27:54;;;;;;;35.03;23.87;;;;;;;2.59;92.63;98284.81;5084971;28;20896;-69
2020/12/12 07:30:20;;;;;;;39.50;24.13;;;;;;;2.56;92.69;98283.28;5084644;28;20463;-68
2020/12/12 07:32:46;;;;;;;36.73;22.40;;;;;;;2.68;92.17;98294.53;5085286;28;20479;-69
2020/12/12 07:35:13;;;;;;;38.60;21.70;;;;;;;2.61;92.49;98294.25;5084080;28;20772;-69
2020/12/12 07:37:39;;;;;;;37.00;22.00;;;;;;;2.81;91.94;98288.97;5085639;28;20459;-68
2020/12/12 07:40:05;;;;;;;39.03;24.13;;;;;;;2.78;91.60;98299.81;5084041;28;20516;-69
2020/12/12 07:42:34;;;;;;;38.10;22.50;;;;;;;2.91;91.12;98310.91;5085262;28;20475;-69
2020/12/12 07:45:10;;;;;;;42.10;23.50;;;;;;;2.84;90.94;98312.44;5085310;28;20450;-68
2020/12/12 07:47:36;;;;;;;40.77;23.17;;;;;;;2.83;91.26;98319.53;5083751;28;20501;-67
2020/12/12 07:50:04;;;;;;;42.77;23.00;;;;;;;2.85;91.21;98322.03;5085389;28;20452;-68
2020/12/12 07:52:30;;;;;;;39.50;22.97;;;;;;;2.99;90.89;98326.88;5083206;28;21033;-68
2020/12/12 07:55:01;;;;;;;35.30;23.20;;;;;;;3.00;90.78;98327.72;5084525;28;20459;-68
2020/12/12 07:57:27;;;;;;;37.03;22.90;;;;;;;3.04;90.76;98333.53;5083451;28;20504;-68
2020/12/12 08:00:06;;;;;;;40.33;23.70;;;;;;;2.95;90.47;98330.78;5084932;28;20531;-69
2020/12/12 08:02:32;;;;;;;37.43;22.30;;;;;;;3.10;90.59;98336.47;5083396;28;20500;-68
2020/12/12 08:04:59;;;;;;;43.23;24.83;;;;;;;3.14;90.06;98342.28;5084720;28;20439;-70
2020/12/12 08:07:29;;;;;;;39.30;24.17;;;;;;;3.15;90.04;98341.34;5082083;28;20507;-69
2020/12/12 08:09:55;;;;;;;39.43;23.33;;;;;;;3.18;89.74;98354.25;5083992;28;20452;-68
2020/12/12 08:12:28;;;;;;;33.50;22.00;;;;;;;3.25;89.84;98352.72;5083483;28;20629;-69
2020/12/12 08:14:56;;;;;;;39.33;23.33;;;;;;;3.25;89.72;98365.94;5084400;28;20440;-69
2020/12/12 08:17:27;;;;;;;35.60;22.40;;;;;;;3.23;89.62;98367.03;5083619;28;20499;-68
2020/12/12 08:19:53;;;;;;;35.20;22.43;;;;;;;3.25;90.10;98363.28;5083658;28;20460;-68
2020/12/12 08:22:20;;;;;;;34.53;23.00;;;;;;;3.31;89.38;98367.16;5083629;28;20482;-68
2020/12/12 08:24:48;;;;;;;39.00;23.53;;;;;;;3.43;88.90;98370.50;5084092;28;20451;-68
2020/12/12 08:27:16;;;;;;;34.30;21.83;;;;;;;3.31;89.10;98365.34;5083430;28;20847;-68
2020/12/12 08:29:44;;;;;;;42.53;31.10;;;;;;;3.18;90.13;98378.03;5083291;28;20539;-70
2020/12/12 08:32:36;;;;;;;32.83;20.10;;;;;;;3.37;90.22;98385.09;5083104;28;20472;-70
2020/12/12 08:35:13;;;;;;;34.13;22.73;;;;;;;3.49;89.21;98383.97;5083918;28;20535;-69
2020/12/12 08:37:40;;;;;;;34.87;22.77;;;;;;;3.46;89.36;98386.06;5080559;28;20498;-69
2020/12/12 08:40:08;;;;;;;30.17;20.00;;;;;;;3.56;88.91;98385.06;5081836;28;20470;-69
2020/12/12 08:42:34;;;;;;;36.13;20.37;;;;;;;3.63;88.94;98387.97;5084814;28;20448;-69
2020/12/12 08:45:14;;;;;;;30.57;20.03;;;;;;;3.58;89.10;98392.84;5084184;28;20478;-70
2020/12/12 08:47:41;;;;;;;29.63;19.60;;;;;;;3.71;87.90;98393.38;5097842;28;20458;-70
2020/12/12 08:50:07;;;;;;;29.40;20.00;;;;;;;3.76;87.44;98392.94;5082183;28;20483;-68
2020/12/12 08:52:33;;;;;;;29.87;19.50;;;;;;;3.69;87.94;98400.59;5085225;28;20478;-70
2020/12/12 08:55:00;;;;;;;27.27;18.50;;;;;;;3.71;87.68;98401.28;5083463;28;20539;-70
2020/12/12 08:57:26;;;;;;;29.47;18.60;;;;;;;3.76;87.45;98406.16;5082461;28;20480;-70
2020/12/12 08:59:58;;;;;;;28.23;19.17;;;;;;;3.69;87.84;98405.06;5075973;28;21107;-69
2020/12/12 09:02:25;;;;;;;28.77;19.03;;;;;;;3.74;87.95;98413.41;5078510;28;20483;-70
2020/12/12 09:05:09;;;;;;;30.90;18.80;;;;;;;3.76;87.54;98406.97;5083188;28;20475;-70
2020/12/12 09:07:35;;;;;;;23.10;16.60;;;;;;;3.80;87.64;98410.19;5085838;28;20498;-70
2020/12/12 09:10:08;;;;;;;28.33;18.20;;;;;;;3.88;87.38;98414.75;5090972;28;20451;-70
2020/12/12 09:12:43;;;;;;;27.17;16.90;;;;;;;3.88;87.33;98412.13;5086184;28;20478;-70
2020/12/12 09:15:09;;;;;;;27.47;17.17;;;;;;;4.02;87.05;98416.13;5085837;28;20454;-71
2020/12/12 09:17:35;;;;;;;24.67;16.80;;;;;;;4.02;86.71;98419.59;5086541;28;20925;-71
2020/12/12 09:20:01;;;;;;;25.77;16.53;;;;;;;4.20;86.01;98424.13;5086684;28;20513;-71
2020/12/12 09:22:28;;;;;;;28.00;19.30;;;;;;;4.03;86.81;98430.97;5085617;28;20479;-71
2020/12/12 09:24:54;;;;;;;29.97;19.00;;;;;;;3.79;87.87;98431.50;5084198;28;20452;-70
2020/12/12 09:27:21;;;;;;;34.40;26.30;;;;;;;3.79;88.59;98442.06;5084564;28;20478;-70
2020/12/12 09:29:47;;;;;;;29.17;23.77;;;;;;;3.88;88.16;98441.19;5086942;28;20490;-67
2020/12/12 09:32:14;;;;;;;27.47;18.90;;;;;;;4.04;88.06;98440.59;5084935;28;20474;-63
2020/12/12 09:34:40;;;;;;;27.40;17.47;;;;;;;4.28;86.86;98448.88;5086544;28;20468;-67
2020/12/12 09:37:06;;;;;;;26.30;18.17;;;;;;;4.24;86.89;98452.78;5085429;28;20471;-72
2020/12/12 09:39:33;;;;;;;23.17;16.03;;;;;;;4.48;85.88;98454.94;5085452;28;20482;-71
2020/12/12 09:42:00;;;;;;;25.87;16.47;;;;;;;4.51;85.47;98449.34;5084598;28;20480;-71
2020/12/12 09:44:26;;;;;;;21.77;15.37;;;;;;;4.50;85.67;98447.66;5085048;28;20448;-71
2020/12/12 09:46:53;;;;;;;21.57;15.27;;;;;;;4.62;85.26;98458.06;5083652;28;20495;-71
2020/12/12 09:49:19;;;;;;;22.17;15.80;;;;;;;4.50;85.54;98458.25;5097872;28;20543;-71
2020/12/12 09:51:45;;;;;;;20.60;16.03;;;;;;;4.65;85.71;98461.25;5083085;28;20514;-71
2020/12/12 09:54:11;;;;;;;24.83;17.50;;;;;;;4.79;84.35;98467.88;5084898;28;20440;-71
2020/12/12 09:56:38;;;;;;;25.83;18.37;;;;;;;4.88;84.08;98463.50;5083631;28;20490;-71
2020/12/12 09:59:05;;;;;;;23.20;16.77;;;;;;;4.89;84.20;98473.94;5084823;28;20471;-71
2020/12/12 10:01:31;;;;;;;23.50;16.03;;;;;;;4.88;83.98;98466.16;5082571;28;20494;-71
2020/12/12 10:03:57;;;;;;;23.83;16.80;;;;;;;4.72;84.82;98472.94;5084898;28;20475;-72
2020/12/12 10:06:23;;;;;;;24.20;17.17;;;;;;;4.70;84.80;98480.19;5083108;28;20460;-72
2020/12/12 10:08:49;;;;;;;25.07;17.13;;;;;;;4.74;84.91;98472.78;5083809;28;20514;-71
2020/12/12 10:11:16;;;;;;;25.50;17.40;;;;;;;4.52;85.71;98474.81;5078925;28;20499;-69
2020/12/12 10:13:43;;;;;;;24.03;17.00;;;;;;;4.56;85.44;98482.47;5081841;28;20464;-70
2020/12/12 10:16:09;;;;;;;26.37;17.47;;;;;;;4.77;84.91;98484.88;5079011;28;20467;-70
2020/12/12 10:18:35;;;;;;;24.83;16.77;;;;;;;4.84;84.68;98480.66;5085460;28;21050;-69
2020/12/12 10:21:01;;;;;;;23.97;16.83;;;;;;;4.86;84.37;98484.84;5081914;28;20476;-68
2020/12/12 10:23:29;;;;;;;23.50;16.93;;;;;;;4.93;84.71;98481.59;5070178;28;20484;-69
2020/12/12 10:25:55;;;;;;;22.53;16.70;;;;;;;5.03;83.61;98479.72;5067624;28;20468;-69
2020/12/12 10:28:21;;;;;;;23.13;16.13;;;;;;;4.93;84.64;98493.03;5069785;28;20471;-68
2020/12/12 10:30:48;;;;;;;22.80;16.77;;;;;;;5.05;84.15;98491.84;5070794;28;20491;-68
2020/12/12 10:33:15;;;;;;;23.00;15.77;;;;;;;5.03;84.30;98491.13;5074944;28;20538;-68
2020/12/12 10:35:41;;;;;;;20.87;15.70;;;;;;;4.91;84.70;98497.63;5068433;28;20461;-68
2020/12/12 10:38:07;;;;;;;23.23;15.10;;;;;;;4.84;85.07;98497.41;5070716;28;20440;-73
2020/12/12 10:40:35;;;;;;;24.80;14.87;;;;;;;5.05;83.69;98490.97;5069309;28;20488;-65
2020/12/12 10:43:04;;;;;;;22.67;15.70;;;;;;;5.04;83.90;98495.47;5071032;28;20925;-64
2020/12/12 10:45:31;;;;;;;21.50;15.10;;;;;;;5.02;83.83;98496.59;5067702;28;20472;-64
2020/12/12 10:47:58;;;;;;;23.37;16.43;;;;;;;5.05;83.46;98497.13;5074520;28;20512;-68
2020/12/12 10:50:24;;;;;;;19.90;15.00;;;;;;;5.09;83.77;98495.84;5068112;28;20816;-66
2020/12/12 10:52:51;;;;;;;18.77;14.23;;;;;;;5.02;83.61;98501.91;5072772;28;20436;-71
2020/12/12 10:55:17;;;;;;;20.83;13.47;;;;;;;5.21;82.93;98501.78;5070903;28;20459;-68
2020/12/12 10:57:43;;;;;;;19.00;14.77;;;;;;;5.01;83.85;98503.69;5073079;28;20448;-68
2020/12/12 11:00:11;;;;;;;20.10;14.10;;;;;;;5.31;83.13;98504.34;5070409;28;20515;-69
2020/12/12 11:02:37;;;;;;;20.60;14.47;;;;;;;5.45;81.42;98506.50;5072639;28;20448;-73
2020/12/12 11:05:05;;;;;;;18.70;13.87;;;;;;;5.37;82.20;98509.06;5068618;28;20449;-73
2020/12/12 11:07:31;;;;;;;22.10;16.37;;;;;;;5.27;82.83;98514.41;5072708;28;20538;-72
2020/12/12 11:09:57;;;;;;;18.07;14.33;;;;;;;5.38;82.42;98508.09;5071524;28;20480;-71
2020/12/12 11:12:24;;;;;;;20.60;13.70;;;;;;;5.30;82.93;98513.28;5071467;28;20476;-70
2020/12/12 11:14:54;;;;;;;20.10;15.50;;;;;;;5.54;82.57;98519.81;5067223;28;20549;-71
2020/12/12 11:17:20;;;;;;;23.20;17.83;;;;;;;5.29;82.68;98524.84;5071225;28;20544;-70
2020/12/12 11:19:46;;;;;;;19.77;15.33;;;;;;;5.39;82.83;98522.16;5070500;28;20573;-70
2020/12/12 11:22:13;;;;;;;20.60;14.90;;;;;;;5.64;81.87;98521.41;5068908;28;21023;-70
2020/12/12 11:24:39;;;;;;;18.10;14.43;;;;;;;5.68;81.98;98527.25;5070433;28;20463;-71